Pagrindinis puslapis
METAR-TAF:

METAR-TAF

Oro uostai :

Qurayyat, Saudo Arabija

platuma: 31-24N, ilguma: 037-16E, Aukštis: 509 m

Dabartinis oras

Ataskaita buvo paskelbta 15 minutes, ne 04:00 UTC
Vėjas 6 kt iš Vakarų
Temperatūra 21°C
Drėgmė 40%
Slėgis 1012 hPa
Matomumas 10 km arba daugiau
nėra debesų žemiau 1500 m ir nėra kamuolinių lietaus debesų

METAR: OEGT 220400Z 28006KT CAVOK 21/07 Q1012 NOSIG

Laikas: 07:15 (04:15 UTC)

Prognozė

Ataskaita buvo paskelbta 5 valandos ir 15 minutes, ne 23:00 UTC
Prognozė galioja nuo 22 metu 00 UTC su 23 metu 06 UTC
Vėjas 10 kt iš Šiaurės/Šiaurės Vakarų
Matomumas 10 km arba daugiau
nėra debesų žemiau 1500 m ir nėra kamuolinių lietaus debesų
Tapsmas
nuo 22 metu 16 UTC su 22 metu 18 UTC
Vėjas 16 kt iš Šiaurės
Tapsmas
nuo 22 metu 22 UTC su 23 metu 00 UTC
Vėjas 10 kt iš Vakarų

TAF: OEGT 212300Z 2200/2306 34010KT CAVOK BECMG 2216/2218 35016KT BECMG 2222/2300 27010KT

Orai ataskaitas ir orų prognozės (METAR, TAF).

turimą stotys yra geltonos ir raudonos taškus žemėlapyje.

Perkelti pele per norėdami pamatyti stoties vardą.

Tada spustelėkite, norėdami matyti oro stebėjimo ir prognozės.

Norėdami pakeisti žemėlapį: spustelėkite ant žalios mygtukų su juodo kryžiaus žemyn,; žalią mygtuką su brūkšneliu, jei norite nutolinti; arba žalių rodyklių gretimoms žemėlapius.


METAR-TAF: